<?xml version="1.0" encoding="UTF-8" standalone="no" ?>
<gpx xmlns="http://www.topografix.com/GPX/1/1" xmlns:xsi="http://www.w3.org/2001/XMLSchema-instance" xsi:schemaLocation="http://www.topografix.com/GPX/1/1 http://www.topografix.com/GPX/1/1/gpx.xsd" version="1.1" creator="VisuGPX - https://www.visugpx.com">
  <metadata>
    <name>serquigny</name>
  </metadata>
  <trk>
    <name><![CDATA[VTT]]></name>
    <trkseg>
      <trkpt lat="49.07984" lon="0.76192">
        <ele>4.46</ele>
        <time>2020-09-06T07:07:04Z</time>
      </trkpt>
      <trkpt lat="49.07983" lon="0.76191">
        <ele>7.35</ele>
        <time>2020-09-06T07:07:06Z</time>
      </trkpt>
      <trkpt lat="49.07984" lon="0.7619">
        <ele>11.67</ele>
        <time>2020-09-06T07:07:08Z</time>
      </trkpt>
      <trkpt lat="49.07992" lon="0.7619">
        <ele>14.56</ele>
        <time>2020-09-06T07:07:14Z</time>
      </trkpt>
      <trkpt lat="49.08004" lon="0.76195">
        <ele>16.96</ele>
        <time>2020-09-06T07:07:17Z</time>
      </trkpt>
      <trkpt lat="49.08007" lon="0.76198">
        <ele>19.36</ele>
        <time>2020-09-06T07:07:18Z</time>
      </trkpt>
      <trkpt lat="49.0802" lon="0.76215">
        <ele>21.29</ele>
        <time>2020-09-06T07:07:21Z</time>
      </trkpt>
      <trkpt lat="49.08025" lon="0.7623">
        <ele>21.29</ele>
        <time>2020-09-06T07:07:23Z</time>
      </trkpt>
      <trkpt lat="49.08036" lon="0.76259">
        <ele>19.84</ele>
        <time>2020-09-06T07:07:27Z</time>
      </trkpt>
      <trkpt lat="49.08063" lon="0.76259">
        <ele>19.36</ele>
        <time>2020-09-06T07:07:31Z</time>
      </trkpt>
      <trkpt lat="49.08082" lon="0.7623">
        <ele>18.88</ele>
        <time>2020-09-06T07:07:35Z</time>
      </trkpt>
      <trkpt lat="49.08085" lon="0.76226">
        <ele>18.4</ele>
        <time>2020-09-06T07:07:36Z</time>
      </trkpt>
      <trkpt lat="49.0809" lon="0.76219">
        <ele>23.69</ele>
        <time>2020-09-06T07:07:37Z</time>
      </trkpt>
      <trkpt lat="49.08094" lon="0.76213">
        <ele>23.69</ele>
        <time>2020-09-06T07:07:38Z</time>
      </trkpt>
      <trkpt lat="49.08103" lon="0.76199">
        <ele>28.02</ele>
        <time>2020-09-06T07:07:40Z</time>
      </trkpt>
      <trkpt lat="49.08112" lon="0.76186">
        <ele>32.34</ele>
        <time>2020-09-06T07:07:42Z</time>
      </trkpt>
      <trkpt lat="49.0812" lon="0.76172">
        <ele>36.19</ele>
        <time>2020-09-06T07:07:44Z</time>
      </trkpt>
      <trkpt lat="49.08129" lon="0.76159">
        <ele>40.03</ele>
        <time>2020-09-06T07:07:46Z</time>
      </trkpt>
      <trkpt lat="49.08137" lon="0.76146">
        <ele>43.4</ele>
        <time>2020-09-06T07:07:48Z</time>
      </trkpt>
      <trkpt lat="49.0815" lon="0.76126">
        <ele>47.72</ele>
        <time>2020-09-06T07:07:51Z</time>
      </trkpt>
      <trkpt lat="49.08163" lon="0.76105">
        <ele>52.05</ele>
        <time>2020-09-06T07:07:54Z</time>
      </trkpt>
      <trkpt lat="49.08176" lon="0.76085">
        <ele>55.89</ele>
        <time>2020-09-06T07:07:57Z</time>
      </trkpt>
      <trkpt lat="49.08189" lon="0.76065">
        <ele>60.7</ele>
        <time>2020-09-06T07:08:00Z</time>
      </trkpt>
      <trkpt lat="49.08202" lon="0.76044">
        <ele>64.07</ele>
        <time>2020-09-06T07:08:03Z</time>
      </trkpt>
      <trkpt lat="49.08211" lon="0.76031">
        <ele>65.03</ele>
        <time>2020-09-06T07:08:05Z</time>
      </trkpt>
      <trkpt lat="49.08228" lon="0.76005">
        <ele>68.39</ele>
        <time>2020-09-06T07:08:09Z</time>
      </trkpt>
      <trkpt lat="49.0825" lon="0.75971">
        <ele>71.27</ele>
        <time>2020-09-06T07:08:14Z</time>
      </trkpt>
      <trkpt lat="49.08272" lon="0.75937">
        <ele>74.64</ele>
        <time>2020-09-06T07:08:19Z</time>
      </trkpt>
      <trkpt lat="49.08299" lon="0.75896">
        <ele>78</ele>
        <time>2020-09-06T07:08:25Z</time>
      </trkpt>
      <trkpt lat="49.08303" lon="0.75889">
        <ele>78</ele>
        <time>2020-09-06T07:08:26Z</time>
      </trkpt>
      <trkpt lat="49.08342" lon="0.75827">
        <ele>81.37</ele>
        <time>2020-09-06T07:08:35Z</time>
      </trkpt>
      <trkpt lat="49.08389" lon="0.75753">
        <ele>84.25</ele>
        <time>2020-09-06T07:08:46Z</time>
      </trkpt>
      <trkpt lat="49.08403" lon="0.75734">
        <ele>86.18</ele>
        <time>2020-09-06T07:08:54Z</time>
      </trkpt>
      <trkpt lat="49.08407" lon="0.75727">
        <ele>88.58</ele>
        <time>2020-09-06T07:09:12Z</time>
      </trkpt>
      <trkpt lat="49.08448" lon="0.75665">
        <ele>89.06</ele>
        <time>2020-09-06T07:09:25Z</time>
      </trkpt>
      <trkpt lat="49.08527" lon="0.7554">
        <ele>89.54</ele>
        <time>2020-09-06T07:09:46Z</time>
      </trkpt>
      <trkpt lat="49.08588" lon="0.75445">
        <ele>89.54</ele>
        <time>2020-09-06T07:10:01Z</time>
      </trkpt>
      <trkpt lat="49.0869" lon="0.75284">
        <ele>87.62</ele>
        <time>2020-09-06T07:10:26Z</time>
      </trkpt>
      <trkpt lat="49.08763" lon="0.75172">
        <ele>87.14</ele>
        <time>2020-09-06T07:10:43Z</time>
      </trkpt>
      <trkpt lat="49.08827" lon="0.7508">
        <ele>86.66</ele>
        <time>2020-09-06T07:10:58Z</time>
      </trkpt>
      <trkpt lat="49.0885" lon="0.75048">
        <ele>86.66</ele>
        <time>2020-09-06T07:11:03Z</time>
      </trkpt>
      <trkpt lat="49.08881" lon="0.74994">
        <ele>86.66</ele>
        <time>2020-09-06T07:11:11Z</time>
      </trkpt>
      <trkpt lat="49.08908" lon="0.74907">
        <ele>86.66</ele>
        <time>2020-09-06T07:11:23Z</time>
      </trkpt>
      <trkpt lat="49.08947" lon="0.74743">
        <ele>88.1</ele>
        <time>2020-09-06T07:11:46Z</time>
      </trkpt>
      <trkpt lat="49.08957" lon="0.74705">
        <ele>88.1</ele>
        <time>2020-09-06T07:11:52Z</time>
      </trkpt>
      <trkpt lat="49.0896" lon="0.747">
        <ele>88.1</ele>
        <time>2020-09-06T07:11:53Z</time>
      </trkpt>
      <trkpt lat="49.08964" lon="0.74696">
        <ele>88.1</ele>
        <time>2020-09-06T07:11:54Z</time>
      </trkpt>
      <trkpt lat="49.08968" lon="0.74696">
        <ele>88.1</ele>
        <time>2020-09-06T07:11:55Z</time>
      </trkpt>
      <trkpt lat="49.08973" lon="0.74698">
        <ele>88.1</ele>
        <time>2020-09-06T07:11:56Z</time>
      </trkpt>
      <trkpt lat="49.08977" lon="0.74703">
        <ele>88.1</ele>
        <time>2020-09-06T07:11:57Z</time>
      </trkpt>
      <trkpt lat="49.0898" lon="0.74708">
        <ele>88.1</ele>
        <time>2020-09-06T07:11:58Z</time>
      </trkpt>
      <trkpt lat="49.08984" lon="0.74713">
        <ele>88.1</ele>
        <time>2020-09-06T07:11:59Z</time>
      </trkpt>
      <trkpt lat="49.08987" lon="0.74719">
        <ele>88.1</ele>
        <time>2020-09-06T07:12:00Z</time>
      </trkpt>
      <trkpt lat="49.08992" lon="0.74724">
        <ele>88.1</ele>
        <time>2020-09-06T07:12:01Z</time>
      </trkpt>
      <trkpt lat="49.09028" lon="0.74756">
        <ele>88.1</ele>
        <time>2020-09-06T07:12:09Z</time>
      </trkpt>
      <trkpt lat="49.09034" lon="0.74758">
        <ele>88.1</ele>
        <time>2020-09-06T07:12:10Z</time>
      </trkpt>
      <trkpt lat="49.09039" lon="0.74759">
        <ele>88.1</ele>
        <time>2020-09-06T07:12:11Z</time>
      </trkpt>
      <trkpt lat="49.09044" lon="0.7476">
        <ele>88.1</ele>
        <time>2020-09-06T07:12:12Z</time>
      </trkpt>
      <trkpt lat="49.09049" lon="0.7476">
        <ele>88.1</ele>
        <time>2020-09-06T07:12:13Z</time>
      </trkpt>
      <trkpt lat="49.09053" lon="0.74759">
        <ele>88.1</ele>
        <time>2020-09-06T07:12:14Z</time>
      </trkpt>
      <trkpt lat="49.09057" lon="0.74758">
        <ele>88.1</ele>
        <time>2020-09-06T07:12:15Z</time>
      </trkpt>
      <trkpt lat="49.09061" lon="0.74757">
        <ele>88.58</ele>
        <time>2020-09-06T07:12:16Z</time>
      </trkpt>
      <trkpt lat="49.09079" lon="0.74745">
        <ele>90.02</ele>
        <time>2020-09-06T07:12:21Z</time>
      </trkpt>
      <trkpt lat="49.09081" lon="0.7474">
        <ele>90.02</ele>
        <time>2020-09-06T07:12:22Z</time>
      </trkpt>
      <trkpt lat="49.09083" lon="0.74735">
        <ele>90.02</ele>
        <time>2020-09-06T07:12:23Z</time>
      </trkpt>
      <trkpt lat="49.09086" lon="0.7473">
        <ele>90.02</ele>
        <time>2020-09-06T07:12:24Z</time>
      </trkpt>
      <trkpt lat="49.09089" lon="0.74724">
        <ele>90.02</ele>
        <time>2020-09-06T07:12:25Z</time>
      </trkpt>
      <trkpt lat="49.09093" lon="0.7472">
        <ele>90.02</ele>
        <time>2020-09-06T07:12:26Z</time>
      </trkpt>
      <trkpt lat="49.09098" lon="0.74716">
        <ele>90.02</ele>
        <time>2020-09-06T07:12:27Z</time>
      </trkpt>
      <trkpt lat="49.09102" lon="0.74713">
        <ele>90.02</ele>
        <time>2020-09-06T07:12:28Z</time>
      </trkpt>
      <trkpt lat="49.09108" lon="0.74711">
        <ele>90.02</ele>
        <time>2020-09-06T07:12:29Z</time>
      </trkpt>
      <trkpt lat="49.09113" lon="0.74708">
        <ele>90.02</ele>
        <time>2020-09-06T07:12:30Z</time>
      </trkpt>
      <trkpt lat="49.09119" lon="0.74705">
        <ele>88.58</ele>
        <time>2020-09-06T07:12:31Z</time>
      </trkpt>
      <trkpt lat="49.09182" lon="0.74644">
        <ele>87.62</ele>
        <time>2020-09-06T07:12:43Z</time>
      </trkpt>
      <trkpt lat="49.09286" lon="0.7454">
        <ele>85.69</ele>
        <time>2020-09-06T07:13:02Z</time>
      </trkpt>
      <trkpt lat="49.09397" lon="0.74431">
        <ele>84.25</ele>
        <time>2020-09-06T07:13:22Z</time>
      </trkpt>
      <trkpt lat="49.0949" lon="0.74338">
        <ele>83.77</ele>
        <time>2020-09-06T07:13:40Z</time>
      </trkpt>
      <trkpt lat="49.09583" lon="0.74245">
        <ele>83.29</ele>
        <time>2020-09-06T07:13:59Z</time>
      </trkpt>
      <trkpt lat="49.09662" lon="0.7417">
        <ele>82.81</ele>
        <time>2020-09-06T07:14:17Z</time>
      </trkpt>
      <trkpt lat="49.09728" lon="0.74107">
        <ele>84.73</ele>
        <time>2020-09-06T07:14:35Z</time>
      </trkpt>
      <trkpt lat="49.09783" lon="0.74052">
        <ele>85.69</ele>
        <time>2020-09-06T07:14:51Z</time>
      </trkpt>
      <trkpt lat="49.09855" lon="0.73979">
        <ele>86.18</ele>
        <time>2020-09-06T07:15:11Z</time>
      </trkpt>
      <trkpt lat="49.09923" lon="0.73909">
        <ele>87.14</ele>
        <time>2020-09-06T07:15:31Z</time>
      </trkpt>
      <trkpt lat="49.09947" lon="0.73867">
        <ele>88.1</ele>
        <time>2020-09-06T07:15:44Z</time>
      </trkpt>
      <trkpt lat="49.09948" lon="0.73846">
        <ele>89.06</ele>
        <time>2020-09-06T07:15:50Z</time>
      </trkpt>
      <trkpt lat="49.09947" lon="0.73844">
        <ele>89.54</ele>
        <time>2020-09-06T07:15:51Z</time>
      </trkpt>
      <trkpt lat="49.09945" lon="0.73842">
        <ele>90.02</ele>
        <time>2020-09-06T07:15:52Z</time>
      </trkpt>
      <trkpt lat="49.09943" lon="0.73842">
        <ele>90.02</ele>
        <time>2020-09-06T07:15:53Z</time>
      </trkpt>
      <trkpt lat="49.09941" lon="0.73842">
        <ele>90.5</ele>
        <time>2020-09-06T07:15:54Z</time>
      </trkpt>
      <trkpt lat="49.09917" lon="0.73841">
        <ele>93.39</ele>
        <time>2020-09-06T07:16:06Z</time>
      </trkpt>
      <trkpt lat="49.09893" lon="0.73848">
        <ele>96.75</ele>
        <time>2020-09-06T07:16:20Z</time>
      </trkpt>
      <trkpt lat="49.09878" lon="0.73852">
        <ele>99.15</ele>
        <time>2020-09-06T07:16:36Z</time>
      </trkpt>
      <trkpt lat="49.09868" lon="0.73854">
        <ele>100.11</ele>
        <time>2020-09-06T07:16:58Z</time>
      </trkpt>
      <trkpt lat="49.09851" lon="0.73859">
        <ele>103</ele>
        <time>2020-09-06T07:17:12Z</time>
      </trkpt>
      <trkpt lat="49.09821" lon="0.73868">
        <ele>105.4</ele>
        <time>2020-09-06T07:17:30Z</time>
      </trkpt>
      <trkpt lat="49.09796" lon="0.73874">
        <ele>107.81</ele>
        <time>2020-09-06T07:17:45Z</time>
      </trkpt>
      <trkpt lat="49.09772" lon="0.73875">
        <ele>109.73</ele>
        <time>2020-09-06T07:17:59Z</time>
      </trkpt>
      <trkpt lat="49.09749" lon="0.73875">
        <ele>113.09</ele>
        <time>2020-09-06T07:18:14Z</time>
      </trkpt>
      <trkpt lat="49.09746" lon="0.73876">
        <ele>113.09</ele>
        <time>2020-09-06T07:18:29Z</time>
      </trkpt>
      <trkpt lat="49.09741" lon="0.73875">
        <ele>113.57</ele>
        <time>2020-09-06T07:18:53Z</time>
      </trkpt>
      <trkpt lat="49.09728" lon="0.73878">
        <ele>116.46</ele>
        <time>2020-09-06T07:19:05Z</time>
      </trkpt>
      <trkpt lat="49.0971" lon="0.73874">
        <ele>118.86</ele>
        <time>2020-09-06T07:19:18Z</time>
      </trkpt>
      <trkpt lat="49.09702" lon="0.73874">
        <ele>120.3</ele>
        <time>2020-09-06T07:19:34Z</time>
      </trkpt>
      <trkpt lat="49.09691" lon="0.73875">
        <ele>121.74</ele>
        <time>2020-09-06T07:20:01Z</time>
      </trkpt>
      <trkpt lat="49.09673" lon="0.73878">
        <ele>124.63</ele>
        <time>2020-09-06T07:20:14Z</time>
      </trkpt>
      <trkpt lat="49.09658" lon="0.73882">
        <ele>127.03</ele>
        <time>2020-09-06T07:20:28Z</time>
      </trkpt>
      <trkpt lat="49.09647" lon="0.73886">
        <ele>127.99</ele>
        <time>2020-09-06T07:20:54Z</time>
      </trkpt>
      <trkpt lat="49.09625" lon="0.73894">
        <ele>131.36</ele>
        <time>2020-09-06T07:21:10Z</time>
      </trkpt>
      <trkpt lat="49.09617" lon="0.7389">
        <ele>132.8</ele>
        <time>2020-09-06T07:21:23Z</time>
      </trkpt>
      <trkpt lat="49.09611" lon="0.73888">
        <ele>133.76</ele>
        <time>2020-09-06T07:21:50Z</time>
      </trkpt>
      <trkpt lat="49.09593" lon="0.73874">
        <ele>137.13</ele>
        <time>2020-09-06T07:22:02Z</time>
      </trkpt>
      <trkpt lat="49.09569" lon="0.73857">
        <ele>140.49</ele>
        <time>2020-09-06T07:22:18Z</time>
      </trkpt>
      <trkpt lat="49.09544" lon="0.73835">
        <ele>141.45</ele>
        <time>2020-09-06T07:22:33Z</time>
      </trkpt>
      <trkpt lat="49.09522" lon="0.73791">
        <ele>142.89</ele>
        <time>2020-09-06T07:22:48Z</time>
      </trkpt>
      <trkpt lat="49.09506" lon="0.73743">
        <ele>143.85</ele>
        <time>2020-09-06T07:23:01Z</time>
      </trkpt>
      <trkpt lat="49.09481" lon="0.73678">
        <ele>144.34</ele>
        <time>2020-09-06T07:23:15Z</time>
      </trkpt>
      <trkpt lat="49.09466" lon="0.73635">
        <ele>144.82</ele>
        <time>2020-09-06T07:23:25Z</time>
      </trkpt>
      <trkpt lat="49.09448" lon="0.73575">
        <ele>145.78</ele>
        <time>2020-09-06T07:23:36Z</time>
      </trkpt>
      <trkpt lat="49.09426" lon="0.73514">
        <ele>145.78</ele>
        <time>2020-09-06T07:23:48Z</time>
      </trkpt>
      <trkpt lat="49.09413" lon="0.73476">
        <ele>146.26</ele>
        <time>2020-09-06T07:23:56Z</time>
      </trkpt>
      <trkpt lat="49.09398" lon="0.73429">
        <ele>146.26</ele>
        <time>2020-09-06T07:24:06Z</time>
      </trkpt>
      <trkpt lat="49.09376" lon="0.73368">
        <ele>147.22</ele>
        <time>2020-09-06T07:24:19Z</time>
      </trkpt>
      <trkpt lat="49.09361" lon="0.73327">
        <ele>147.7</ele>
        <time>2020-09-06T07:24:29Z</time>
      </trkpt>
      <trkpt lat="49.09343" lon="0.73281">
        <ele>148.66</ele>
        <time>2020-09-06T07:24:41Z</time>
      </trkpt>
      <trkpt lat="49.09328" lon="0.73226">
        <ele>149.14</ele>
        <time>2020-09-06T07:24:54Z</time>
      </trkpt>
      <trkpt lat="49.09316" lon="0.73188">
        <ele>149.62</ele>
        <time>2020-09-06T07:25:05Z</time>
      </trkpt>
      <trkpt lat="49.09288" lon="0.73107">
        <ele>149.62</ele>
        <time>2020-09-06T07:25:20Z</time>
      </trkpt>
      <trkpt lat="49.09272" lon="0.7306">
        <ele>150.1</ele>
        <time>2020-09-06T07:25:31Z</time>
      </trkpt>
      <trkpt lat="49.09256" lon="0.73012">
        <ele>150.58</ele>
        <time>2020-09-06T07:25:43Z</time>
      </trkpt>
      <trkpt lat="49.09234" lon="0.72954">
        <ele>151.06</ele>
        <time>2020-09-06T07:25:56Z</time>
      </trkpt>
      <trkpt lat="49.09215" lon="0.72897">
        <ele>151.54</ele>
        <time>2020-09-06T07:26:09Z</time>
      </trkpt>
      <trkpt lat="49.09201" lon="0.7286">
        <ele>151.54</ele>
        <time>2020-09-06T07:26:19Z</time>
      </trkpt>
      <trkpt lat="49.09183" lon="0.72804">
        <ele>152.03</ele>
        <time>2020-09-06T07:26:32Z</time>
      </trkpt>
      <trkpt lat="49.0917" lon="0.72768">
        <ele>152.03</ele>
        <time>2020-09-06T07:26:41Z</time>
      </trkpt>
      <trkpt lat="49.09154" lon="0.72727">
        <ele>152.03</ele>
        <time>2020-09-06T07:26:52Z</time>
      </trkpt>
      <trkpt lat="49.09134" lon="0.7267">
        <ele>152.51</ele>
        <time>2020-09-06T07:27:04Z</time>
      </trkpt>
      <trkpt lat="49.09118" lon="0.72624">
        <ele>152.51</ele>
        <time>2020-09-06T07:27:15Z</time>
      </trkpt>
      <trkpt lat="49.09097" lon="0.72568">
        <ele>152.51</ele>
        <time>2020-09-06T07:27:28Z</time>
      </trkpt>
      <trkpt lat="49.09076" lon="0.72508">
        <ele>152.51</ele>
        <time>2020-09-06T07:27:41Z</time>
      </trkpt>
      <trkpt lat="49.0906" lon="0.72463">
        <ele>152.51</ele>
        <time>2020-09-06T07:27:51Z</time>
      </trkpt>
      <trkpt lat="49.09044" lon="0.7242">
        <ele>152.99</ele>
        <time>2020-09-06T07:28:01Z</time>
      </trkpt>
      <trkpt lat="49.09027" lon="0.72375">
        <ele>152.99</ele>
        <time>2020-09-06T07:28:11Z</time>
      </trkpt>
      <trkpt lat="49.0901" lon="0.72332">
        <ele>152.99</ele>
        <time>2020-09-06T07:28:21Z</time>
      </trkpt>
      <trkpt lat="49.08994" lon="0.72288">
        <ele>152.99</ele>
        <time>2020-09-06T07:28:30Z</time>
      </trkpt>
      <trkpt lat="49.08972" lon="0.72228">
        <ele>153.47</ele>
        <time>2020-09-06T07:28:42Z</time>
      </trkpt>
      <trkpt lat="49.08954" lon="0.7217">
        <ele>153.47</ele>
        <time>2020-09-06T07:28:53Z</time>
      </trkpt>
      <trkpt lat="49.0895" lon="0.72155">
        <ele>153.47</ele>
        <time>2020-09-06T07:29:02Z</time>
      </trkpt>
      <trkpt lat="49.08946" lon="0.72146">
        <ele>153.95</ele>
        <time>2020-09-06T07:29:14Z</time>
      </trkpt>
      <trkpt lat="49.08944" lon="0.72141">
        <ele>154.43</ele>
        <time>2020-09-06T07:29:34Z</time>
      </trkpt>
      <trkpt lat="49.08931" lon="0.72107">
        <ele>154.43</ele>
        <time>2020-09-06T07:29:47Z</time>
      </trkpt>
      <trkpt lat="49.0891" lon="0.72051">
        <ele>154.91</ele>
        <time>2020-09-06T07:30:01Z</time>
      </trkpt>
      <trkpt lat="49.08889" lon="0.71993">
        <ele>154.91</ele>
        <time>2020-09-06T07:30:13Z</time>
      </trkpt>
      <trkpt lat="49.08864" lon="0.71924">
        <ele>155.39</ele>
        <time>2020-09-06T07:30:26Z</time>
      </trkpt>
      <trkpt lat="49.08842" lon="0.71859">
        <ele>155.39</ele>
        <time>2020-09-06T07:30:39Z</time>
      </trkpt>
      <trkpt lat="49.08821" lon="0.71793">
        <ele>155.39</ele>
        <time>2020-09-06T07:30:54Z</time>
      </trkpt>
      <trkpt lat="49.08799" lon="0.71737">
        <ele>155.87</ele>
        <time>2020-09-06T07:31:07Z</time>
      </trkpt>
      <trkpt lat="49.08792" lon="0.71719">
        <ele>155.87</ele>
        <time>2020-09-06T07:31:16Z</time>
      </trkpt>
      <trkpt lat="49.08793" lon="0.71718">
        <ele>155.87</ele>
        <time>2020-09-06T07:31:21Z</time>
      </trkpt>
      <trkpt lat="49.08794" lon="0.71719">
        <ele>155.87</ele>
        <time>2020-09-06T07:31:22Z</time>
      </trkpt>
      <trkpt lat="49.08815" lon="0.71761">
        <ele>155.87</ele>
        <time>2020-09-06T07:31:35Z</time>
      </trkpt>
      <trkpt lat="49.08833" lon="0.71813">
        <ele>155.87</ele>
        <time>2020-09-06T07:31:47Z</time>
      </trkpt>
      <trkpt lat="49.08855" lon="0.71874">
        <ele>155.87</ele>
        <time>2020-09-06T07:32:00Z</time>
      </trkpt>
      <trkpt lat="49.08874" lon="0.71929">
        <ele>155.87</ele>
        <time>2020-09-06T07:32:11Z</time>
      </trkpt>
      <trkpt lat="49.08895" lon="0.7198">
        <ele>154.91</ele>
        <time>2020-09-06T07:32:23Z</time>
      </trkpt>
      <trkpt lat="49.08911" lon="0.72024">
        <ele>154.91</ele>
        <time>2020-09-06T07:32:34Z</time>
      </trkpt>
      <trkpt lat="49.08928" lon="0.72075">
        <ele>154.91</ele>
        <time>2020-09-06T07:32:45Z</time>
      </trkpt>
      <trkpt lat="49.08949" lon="0.72136">
        <ele>154.91</ele>
        <time>2020-09-06T07:32:57Z</time>
      </trkpt>
      <trkpt lat="49.0897" lon="0.72193">
        <ele>154.91</ele>
        <time>2020-09-06T07:33:09Z</time>
      </trkpt>
      <trkpt lat="49.08992" lon="0.72256">
        <ele>154.91</ele>
        <time>2020-09-06T07:33:22Z</time>
      </trkpt>
      <trkpt lat="49.09014" lon="0.72325">
        <ele>154.91</ele>
        <time>2020-09-06T07:33:36Z</time>
      </trkpt>
      <trkpt lat="49.09029" lon="0.72371">
        <ele>154.91</ele>
        <time>2020-09-06T07:33:45Z</time>
      </trkpt>
      <trkpt lat="49.09052" lon="0.72434">
        <ele>154.91</ele>
        <time>2020-09-06T07:33:58Z</time>
      </trkpt>
      <trkpt lat="49.09073" lon="0.72491">
        <ele>154.91</ele>
        <time>2020-09-06T07:34:10Z</time>
      </trkpt>
      <trkpt lat="49.09088" lon="0.72531">
        <ele>154.91</ele>
        <time>2020-09-06T07:34:19Z</time>
      </trkpt>
      <trkpt lat="49.09105" lon="0.72584">
        <ele>154.91</ele>
        <time>2020-09-06T07:34:29Z</time>
      </trkpt>
      <trkpt lat="49.09127" lon="0.72647">
        <ele>154.91</ele>
        <time>2020-09-06T07:34:40Z</time>
      </trkpt>
      <trkpt lat="49.0914" lon="0.72682">
        <ele>154.91</ele>
        <time>2020-09-06T07:34:46Z</time>
      </trkpt>
      <trkpt lat="49.09167" lon="0.72764">
        <ele>154.91</ele>
        <time>2020-09-06T07:35:00Z</time>
      </trkpt>
      <trkpt lat="49.09192" lon="0.72834">
        <ele>154.91</ele>
        <time>2020-09-06T07:35:12Z</time>
      </trkpt>
      <trkpt lat="49.09194" lon="0.7284">
        <ele>154.91</ele>
        <time>2020-09-06T07:35:13Z</time>
      </trkpt>
      <trkpt lat="49.09196" lon="0.72847">
        <ele>154.91</ele>
        <time>2020-09-06T07:35:14Z</time>
      </trkpt>
      <trkpt lat="49.092" lon="0.72859">
        <ele>154.91</ele>
        <time>2020-09-06T07:35:16Z</time>
      </trkpt>
      <trkpt lat="49.09222" lon="0.72926">
        <ele>154.43</ele>
        <time>2020-09-06T07:35:28Z</time>
      </trkpt>
      <trkpt lat="49.09236" lon="0.72964">
        <ele>154.43</ele>
        <time>2020-09-06T07:35:34Z</time>
      </trkpt>
      <trkpt lat="49.09238" lon="0.7297">
        <ele>154.43</ele>
        <time>2020-09-06T07:35:35Z</time>
      </trkpt>
      <trkpt lat="49.09241" lon="0.72977">
        <ele>154.43</ele>
        <time>2020-09-06T07:35:36Z</time>
      </trkpt>
      <trkpt lat="49.09276" lon="0.73073">
        <ele>153.47</ele>
        <time>2020-09-06T07:35:51Z</time>
      </trkpt>
      <trkpt lat="49.0928" lon="0.73086">
        <ele>153.47</ele>
        <time>2020-09-06T07:35:53Z</time>
      </trkpt>
      <trkpt lat="49.09297" lon="0.73124">
        <ele>152.99</ele>
        <time>2020-09-06T07:35:59Z</time>
      </trkpt>
      <trkpt lat="49.09298" lon="0.73131">
        <ele>152.99</ele>
        <time>2020-09-06T07:36:00Z</time>
      </trkpt>
      <trkpt lat="49.09318" lon="0.73188">
        <ele>152.99</ele>
        <time>2020-09-06T07:36:09Z</time>
      </trkpt>
      <trkpt lat="49.09327" lon="0.73212">
        <ele>152.99</ele>
        <time>2020-09-06T07:36:13Z</time>
      </trkpt>
      <trkpt lat="49.09339" lon="0.73242">
        <ele>152.99</ele>
        <time>2020-09-06T07:36:18Z</time>
      </trkpt>
      <trkpt lat="49.09363" lon="0.7332">
        <ele>152.51</ele>
        <time>2020-09-06T07:36:30Z</time>
      </trkpt>
      <trkpt lat="49.09365" lon="0.73326">
        <ele>152.03</ele>
        <time>2020-09-06T07:36:31Z</time>
      </trkpt>
      <trkpt lat="49.09369" lon="0.73339">
        <ele>152.03</ele>
        <time>2020-09-06T07:36:33Z</time>
      </trkpt>
      <trkpt lat="49.09371" lon="0.73345">
        <ele>152.03</ele>
        <time>2020-09-06T07:36:34Z</time>
      </trkpt>
      <trkpt lat="49.09373" lon="0.73352">
        <ele>152.03</ele>
        <time>2020-09-06T07:36:35Z</time>
      </trkpt>
      <trkpt lat="49.09403" lon="0.73432">
        <ele>151.06</ele>
        <time>2020-09-06T07:36:46Z</time>
      </trkpt>
      <trkpt lat="49.09405" lon="0.73438">
        <ele>151.06</ele>
        <time>2020-09-06T07:36:47Z</time>
      </trkpt>
      <trkpt lat="49.09407" lon="0.73444">
        <ele>151.06</ele>
        <time>2020-09-06T07:36:48Z</time>
      </trkpt>
      <trkpt lat="49.09409" lon="0.7345">
        <ele>151.06</ele>
        <time>2020-09-06T07:36:49Z</time>
      </trkpt>
      <trkpt lat="49.09411" lon="0.73455">
        <ele>151.06</ele>
        <time>2020-09-06T07:36:50Z</time>
      </trkpt>
      <trkpt lat="49.09412" lon="0.73461">
        <ele>151.06</ele>
        <time>2020-09-06T07:36:51Z</time>
      </trkpt>
      <trkpt lat="49.09416" lon="0.73475">
        <ele>151.06</ele>
        <time>2020-09-06T07:36:53Z</time>
      </trkpt>
      <trkpt lat="49.09419" lon="0.73481">
        <ele>151.06</ele>
        <time>2020-09-06T07:36:54Z</time>
      </trkpt>
      <trkpt lat="49.09432" lon="0.73521">
        <ele>150.1</ele>
        <time>2020-09-06T07:37:00Z</time>
      </trkpt>
      <trkpt lat="49.09435" lon="0.73528">
        <ele>150.1</ele>
        <time>2020-09-06T07:37:01Z</time>
      </trkpt>
      <trkpt lat="49.0944" lon="0.73542">
        <ele>150.1</ele>
        <time>2020-09-06T07:37:03Z</time>
      </trkpt>
      <trkpt lat="49.09442" lon="0.73549">
        <ele>150.1</ele>
        <time>2020-09-06T07:37:04Z</time>
      </trkpt>
      <trkpt lat="49.09456" lon="0.73587">
        <ele>150.1</ele>
        <time>2020-09-06T07:37:09Z</time>
      </trkpt>
      <trkpt lat="49.09461" lon="0.73603">
        <ele>150.1</ele>
        <time>2020-09-06T07:37:11Z</time>
      </trkpt>
      <trkpt lat="49.09491" lon="0.73683">
        <ele>149.14</ele>
        <time>2020-09-06T07:37:21Z</time>
      </trkpt>
      <trkpt lat="49.09495" lon="0.73692">
        <ele>149.14</ele>
        <time>2020-09-06T07:37:22Z</time>
      </trkpt>
      <trkpt lat="49.09499" lon="0.73699">
        <ele>149.14</ele>
        <time>2020-09-06T07:37:23Z</time>
      </trkpt>
      <trkpt lat="49.09505" lon="0.73706">
        <ele>149.14</ele>
        <time>2020-09-06T07:37:24Z</time>
      </trkpt>
      <trkpt lat="49.0951" lon="0.73711">
        <ele>148.66</ele>
        <time>2020-09-06T07:37:25Z</time>
      </trkpt>
      <trkpt lat="49.09516" lon="0.73716">
        <ele>148.66</ele>
        <time>2020-09-06T07:37:26Z</time>
      </trkpt>
      <trkpt lat="49.09521" lon="0.73718">
        <ele>148.66</ele>
        <time>2020-09-06T07:37:27Z</time>
      </trkpt>
      <trkpt lat="49.09526" lon="0.7372">
        <ele>148.66</ele>
        <time>2020-09-06T07:37:28Z</time>
      </trkpt>
      <trkpt lat="49.09532" lon="0.7372">
        <ele>148.66</ele>
        <time>2020-09-06T07:37:29Z</time>
      </trkpt>
      <trkpt lat="49.09538" lon="0.7372">
        <ele>148.66</ele>
        <time>2020-09-06T07:37:30Z</time>
      </trkpt>
      <trkpt lat="49.09543" lon="0.73719">
        <ele>148.66</ele>
        <time>2020-09-06T07:37:31Z</time>
      </trkpt>
      <trkpt lat="49.09548" lon="0.73717">
        <ele>148.66</ele>
        <time>2020-09-06T07:37:32Z</time>
      </trkpt>
      <trkpt lat="49.09552" lon="0.73713">
        <ele>148.66</ele>
        <time>2020-09-06T07:37:33Z</time>
      </trkpt>
      <trkpt lat="49.09555" lon="0.73708">
        <ele>148.66</ele>
        <time>2020-09-06T07:37:34Z</time>
      </trkpt>
      <trkpt lat="49.09557" lon="0.73703">
        <ele>148.66</ele>
        <time>2020-09-06T07:37:35Z</time>
      </trkpt>
      <trkpt lat="49.09559" lon="0.73697">
        <ele>148.66</ele>
        <time>2020-09-06T07:37:36Z</time>
      </trkpt>
      <trkpt lat="49.09562" lon="0.73691">
        <ele>148.66</ele>
        <time>2020-09-06T07:37:37Z</time>
      </trkpt>
      <trkpt lat="49.09564" lon="0.73685">
        <ele>148.66</ele>
        <time>2020-09-06T07:37:38Z</time>
      </trkpt>
      <trkpt lat="49.09594" lon="0.73596">
        <ele>150.1</ele>
        <time>2020-09-06T07:37:52Z</time>
      </trkpt>
      <trkpt lat="49.09612" lon="0.7354">
        <ele>149.62</ele>
        <time>2020-09-06T07:38:04Z</time>
      </trkpt>
      <trkpt lat="49.09633" lon="0.73471">
        <ele>149.62</ele>
        <time>2020-09-06T07:38:17Z</time>
      </trkpt>
      <trkpt lat="49.09653" lon="0.73404">
        <ele>149.62</ele>
        <time>2020-09-06T07:38:30Z</time>
      </trkpt>
      <trkpt lat="49.09677" lon="0.73328">
        <ele>149.62</ele>
        <time>2020-09-06T07:38:44Z</time>
      </trkpt>
      <trkpt lat="49.09706" lon="0.73264">
        <ele>149.62</ele>
        <time>2020-09-06T07:38:57Z</time>
      </trkpt>
      <trkpt lat="49.09716" lon="0.73254">
        <ele>149.62</ele>
        <time>2020-09-06T07:39:00Z</time>
      </trkpt>
      <trkpt lat="49.09728" lon="0.73246">
        <ele>149.62</ele>
        <time>2020-09-06T07:39:03Z</time>
      </trkpt>
      <trkpt lat="49.09732" lon="0.73244">
        <ele>149.62</ele>
        <time>2020-09-06T07:39:04Z</time>
      </trkpt>
      <trkpt lat="49.09736" lon="0.73241">
        <ele>149.62</ele>
        <time>2020-09-06T07:39:05Z</time>
      </trkpt>
      <trkpt lat="49.09757" lon="0.73222">
        <ele>148.18</ele>
        <time>2020-09-06T07:39:10Z</time>
      </trkpt>
      <trkpt lat="49.0978" lon="0.73205">
        <ele>147.7</ele>
        <time>2020-09-06T07:39:16Z</time>
      </trkpt>
      <trkpt lat="49.09784" lon="0.73202">
        <ele>147.7</ele>
        <time>2020-09-06T07:39:17Z</time>
      </trkpt>
      <trkpt lat="49.09789" lon="0.73199">
        <ele>147.7</ele>
        <time>2020-09-06T07:39:18Z</time>
      </trkpt>
      <trkpt lat="49.09793" lon="0.73196">
        <ele>147.7</ele>
        <time>2020-09-06T07:39:19Z</time>
      </trkpt>
      <trkpt lat="49.09797" lon="0.73193">
        <ele>147.7</ele>
        <time>2020-09-06T07:39:20Z</time>
      </trkpt>
      <trkpt lat="49.09839" lon="0.73162">
        <ele>147.22</ele>
        <time>2020-09-06T07:39:31Z</time>
      </trkpt>
      <trkpt lat="49.09848" lon="0.73156">
        <ele>146.74</ele>
        <time>2020-09-06T07:39:33Z</time>
      </trkpt>
      <trkpt lat="49.09853" lon="0.73152">
        <ele>146.74</ele>
        <time>2020-09-06T07:39:34Z</time>
      </trkpt>
      <trkpt lat="49.09862" lon="0.73145">
        <ele>146.74</ele>
        <time>2020-09-06T07:39:36Z</time>
      </trkpt>
      <trkpt lat="49.0991" lon="0.7311">
        <ele>146.74</ele>
        <time>2020-09-06T07:39:47Z</time>
      </trkpt>
      <trkpt lat="49.09935" lon="0.73093">
        <ele>146.26</ele>
        <time>2020-09-06T07:39:53Z</time>
      </trkpt>
      <trkpt lat="49.09944" lon="0.73086">
        <ele>146.26</ele>
        <time>2020-09-06T07:39:55Z</time>
      </trkpt>
      <trkpt lat="49.09987" lon="0.73056">
        <ele>145.78</ele>
        <time>2020-09-06T07:40:06Z</time>
      </trkpt>
      <trkpt lat="49.10035" lon="0.7302">
        <ele>143.85</ele>
        <time>2020-09-06T07:40:18Z</time>
      </trkpt>
      <trkpt lat="49.10039" lon="0.73017">
        <ele>143.85</ele>
        <time>2020-09-06T07:40:19Z</time>
      </trkpt>
      <trkpt lat="49.10079" lon="0.72988">
        <ele>141.45</ele>
        <time>2020-09-06T07:40:29Z</time>
      </trkpt>
      <trkpt lat="49.10117" lon="0.72954">
        <ele>138.09</ele>
        <time>2020-09-06T07:40:38Z</time>
      </trkpt>
      <trkpt lat="49.10164" lon="0.72905">
        <ele>135.2</ele>
        <time>2020-09-06T07:40:49Z</time>
      </trkpt>
      <trkpt lat="49.10201" lon="0.72842">
        <ele>132.8</ele>
        <time>2020-09-06T07:40:59Z</time>
      </trkpt>
      <trkpt lat="49.10203" lon="0.72835">
        <ele>132.32</ele>
        <time>2020-09-06T07:41:00Z</time>
      </trkpt>
      <trkpt lat="49.10222" lon="0.72777">
        <ele>128.95</ele>
        <time>2020-09-06T07:41:08Z</time>
      </trkpt>
      <trkpt lat="49.10242" lon="0.72725">
        <ele>126.07</ele>
        <time>2020-09-06T07:41:16Z</time>
      </trkpt>
      <trkpt lat="49.10259" lon="0.72678">
        <ele>123.19</ele>
        <time>2020-09-06T07:41:23Z</time>
      </trkpt>
      <trkpt lat="49.10261" lon="0.72671">
        <ele>122.22</ele>
        <time>2020-09-06T07:41:24Z</time>
      </trkpt>
      <trkpt lat="49.10277" lon="0.72623">
        <ele>119.34</ele>
        <time>2020-09-06T07:41:31Z</time>
      </trkpt>
      <trkpt lat="49.10295" lon="0.72576">
        <ele>115.98</ele>
        <time>2020-09-06T07:41:38Z</time>
      </trkpt>
      <trkpt lat="49.10312" lon="0.72534">
        <ele>113.09</ele>
        <time>2020-09-06T07:41:45Z</time>
      </trkpt>
      <trkpt lat="49.10316" lon="0.72529">
        <ele>112.13</ele>
        <time>2020-09-06T07:41:46Z</time>
      </trkpt>
      <trkpt lat="49.1033" lon="0.7251">
        <ele>111.17</ele>
        <time>2020-09-06T07:41:50Z</time>
      </trkpt>
      <trkpt lat="49.10333" lon="0.72505">
        <ele>110.69</ele>
        <time>2020-09-06T07:41:51Z</time>
      </trkpt>
      <trkpt lat="49.10348" lon="0.72489">
        <ele>110.21</ele>
        <time>2020-09-06T07:41:55Z</time>
      </trkpt>
      <trkpt lat="49.10355" lon="0.72483">
        <ele>109.25</ele>
        <time>2020-09-06T07:41:57Z</time>
      </trkpt>
      <trkpt lat="49.10363" lon="0.72474">
        <ele>109.25</ele>
        <time>2020-09-06T07:41:59Z</time>
      </trkpt>
      <trkpt lat="49.10367" lon="0.72468">
        <ele>108.29</ele>
        <time>2020-09-06T07:42:00Z</time>
      </trkpt>
      <trkpt lat="49.1037" lon="0.72461">
        <ele>108.29</ele>
        <time>2020-09-06T07:42:01Z</time>
      </trkpt>
      <trkpt lat="49.10373" lon="0.72436">
        <ele>107.32</ele>
        <time>2020-09-06T07:42:04Z</time>
      </trkpt>
      <trkpt lat="49.10372" lon="0.72419">
        <ele>106.84</ele>
        <time>2020-09-06T07:42:06Z</time>
      </trkpt>
      <trkpt lat="49.10381" lon="0.72379">
        <ele>104.44</ele>
        <time>2020-09-06T07:42:11Z</time>
      </trkpt>
      <trkpt lat="49.10392" lon="0.7235">
        <ele>103.48</ele>
        <time>2020-09-06T07:42:14Z</time>
      </trkpt>
      <trkpt lat="49.10397" lon="0.72341">
        <ele>103.48</ele>
        <time>2020-09-06T07:42:15Z</time>
      </trkpt>
      <trkpt lat="49.10423" lon="0.72285">
        <ele>100.11</ele>
        <time>2020-09-06T07:42:21Z</time>
      </trkpt>
      <trkpt lat="49.10456" lon="0.72214">
        <ele>96.75</ele>
        <time>2020-09-06T07:42:28Z</time>
      </trkpt>
      <trkpt lat="49.10498" lon="0.72123">
        <ele>93.87</ele>
        <time>2020-09-06T07:42:37Z</time>
      </trkpt>
      <trkpt lat="49.10539" lon="0.72034">
        <ele>90.5</ele>
        <time>2020-09-06T07:42:46Z</time>
      </trkpt>
      <trkpt lat="49.10568" lon="0.71976">
        <ele>87.14</ele>
        <time>2020-09-06T07:42:53Z</time>
      </trkpt>
      <trkpt lat="49.10603" lon="0.71918">
        <ele>84.25</ele>
        <time>2020-09-06T07:43:04Z</time>
      </trkpt>
      <trkpt lat="49.10612" lon="0.71908">
        <ele>84.25</ele>
        <time>2020-09-06T07:43:06Z</time>
      </trkpt>
      <trkpt lat="49.10618" lon="0.71904">
        <ele>84.25</ele>
        <time>2020-09-06T07:43:07Z</time>
      </trkpt>
      <trkpt lat="49.10623" lon="0.719">
        <ele>83.29</ele>
        <time>2020-09-06T07:43:08Z</time>
      </trkpt>
      <trkpt lat="49.10627" lon="0.71895">
        <ele>82.81</ele>
        <time>2020-09-06T07:43:09Z</time>
      </trkpt>
      <trkpt lat="49.10631" lon="0.71891">
        <ele>82.81</ele>
        <time>2020-09-06T07:43:10Z</time>
      </trkpt>
      <trkpt lat="49.10634" lon="0.71887">
        <ele>82.81</ele>
        <time>2020-09-06T07:43:11Z</time>
      </trkpt>
      <trkpt lat="49.10638" lon="0.71884">
        <ele>82.81</ele>
        <time>2020-09-06T07:43:12Z</time>
      </trkpt>
      <trkpt lat="49.10642" lon="0.71883">
        <ele>82.33</ele>
        <time>2020-09-06T07:43:13Z</time>
      </trkpt>
      <trkpt lat="49.10646" lon="0.71885">
        <ele>82.33</ele>
        <time>2020-09-06T07:43:14Z</time>
      </trkpt>
      <trkpt lat="49.10649" lon="0.71889">
        <ele>81.85</ele>
        <time>2020-09-06T07:43:15Z</time>
      </trkpt>
      <trkpt lat="49.10652" lon="0.71895">
        <ele>81.85</ele>
        <time>2020-09-06T07:43:16Z</time>
      </trkpt>
      <trkpt lat="49.10655" lon="0.71901">
        <ele>81.85</ele>
        <time>2020-09-06T07:43:17Z</time>
      </trkpt>
      <trkpt lat="49.10672" lon="0.7194">
        <ele>81.37</ele>
        <time>2020-09-06T07:43:28Z</time>
      </trkpt>
      <trkpt lat="49.10681" lon="0.71957">
        <ele>81.37</ele>
        <time>2020-09-06T07:43:47Z</time>
      </trkpt>
      <trkpt lat="49.10709" lon="0.72014">
        <ele>81.37</ele>
        <time>2020-09-06T07:43:59Z</time>
      </trkpt>
      <trkpt lat="49.1073" lon="0.72059">
        <ele>81.37</ele>
        <time>2020-09-06T07:44:07Z</time>
      </trkpt>
      <trkpt lat="49.1075" lon="0.72102">
        <ele>81.37</ele>
        <time>2020-09-06T07:44:14Z</time>
      </trkpt>
      <trkpt lat="49.10789" lon="0.72189">
        <ele>81.37</ele>
        <time>2020-09-06T07:44:30Z</time>
      </trkpt>
      <trkpt lat="49.10798" lon="0.72208">
        <ele>82.81</ele>
        <time>2020-09-06T07:44:34Z</time>
      </trkpt>
      <trkpt lat="49.1082" lon="0.72278">
        <ele>83.77</ele>
        <time>2020-09-06T07:44:50Z</time>
      </trkpt>
      <trkpt lat="49.10828" lon="0.72331">
        <ele>85.21</ele>
        <time>2020-09-06T07:45:04Z</time>
      </trkpt>
      <trkpt lat="49.10827" lon="0.72402">
        <ele>88.1</ele>
        <time>2020-09-06T07:45:23Z</time>
      </trkpt>
      <trkpt lat="49.10823" lon="0.72453">
        <ele>91.46</ele>
        <time>2020-09-06T07:45:37Z</time>
      </trkpt>
      <trkpt lat="49.10842" lon="0.72485">
        <ele>92.9</ele>
        <time>2020-09-06T07:45:50Z</time>
      </trkpt>
      <trkpt lat="49.10858" lon="0.72485">
        <ele>92.9</ele>
        <time>2020-09-06T07:45:54Z</time>
      </trkpt>
      <trkpt lat="49.10863" lon="0.72486">
        <ele>92.9</ele>
        <time>2020-09-06T07:45:55Z</time>
      </trkpt>
      <trkpt lat="49.10867" lon="0.72491">
        <ele>92.9</ele>
        <time>2020-09-06T07:45:56Z</time>
      </trkpt>
      <trkpt lat="49.10871" lon="0.72497">
        <ele>91.46</ele>
        <time>2020-09-06T07:45:57Z</time>
      </trkpt>
      <trkpt lat="49.10875" lon="0.72506">
        <ele>90.5</ele>
        <time>2020-09-06T07:45:58Z</time>
      </trkpt>
      <trkpt lat="49.10879" lon="0.72516">
        <ele>90.02</ele>
        <time>2020-09-06T07:45:59Z</time>
      </trkpt>
      <trkpt lat="49.10881" lon="0.72526">
        <ele>89.06</ele>
        <time>2020-09-06T07:46:00Z</time>
      </trkpt>
      <trkpt lat="49.10901" lon="0.72601">
        <ele>87.14</ele>
        <time>2020-09-06T07:46:07Z</time>
      </trkpt>
      <trkpt lat="49.10902" lon="0.72611">
        <ele>87.14</ele>
        <time>2020-09-06T07:46:08Z</time>
      </trkpt>
      <trkpt lat="49.10903" lon="0.7262">
        <ele>87.14</ele>
        <time>2020-09-06T07:46:09Z</time>
      </trkpt>
      <trkpt lat="49.10904" lon="0.72677">
        <ele>88.58</ele>
        <time>2020-09-06T07:46:16Z</time>
      </trkpt>
      <trkpt lat="49.10906" lon="0.72793">
        <ele>89.54</ele>
        <time>2020-09-06T07:46:31Z</time>
      </trkpt>
      <trkpt lat="49.10905" lon="0.72801">
        <ele>89.54</ele>
        <time>2020-09-06T07:46:32Z</time>
      </trkpt>
      <trkpt lat="49.10904" lon="0.72809">
        <ele>89.54</ele>
        <time>2020-09-06T07:46:33Z</time>
      </trkpt>
      <trkpt lat="49.10902" lon="0.72818">
        <ele>89.54</ele>
        <time>2020-09-06T07:46:34Z</time>
      </trkpt>
      <trkpt lat="49.10899" lon="0.72826">
        <ele>89.54</ele>
        <time>2020-09-06T07:46:35Z</time>
      </trkpt>
      <trkpt lat="49.10896" lon="0.72834">
        <ele>89.54</ele>
        <time>2020-09-06T07:46:36Z</time>
      </trkpt>
      <trkpt lat="49.10856" lon="0.72916">
        <ele>88.1</ele>
        <time>2020-09-06T07:46:46Z</time>
      </trkpt>
      <trkpt lat="49.1078" lon="0.73066">
        <ele>86.18</ele>
        <time>2020-09-06T07:47:04Z</time>
      </trkpt>
      <trkpt lat="49.10773" lon="0.7308">
        <ele>86.18</ele>
        <time>2020-09-06T07:47:06Z</time>
      </trkpt>
      <trkpt lat="49.10764" lon="0.73102">
        <ele>86.18</ele>
        <time>2020-09-06T07:47:09Z</time>
      </trkpt>
      <trkpt lat="49.10753" lon="0.73124">
        <ele>85.69</ele>
        <time>2020-09-06T07:47:13Z</time>
      </trkpt>
      <trkpt lat="49.10754" lon="0.73127">
        <ele>85.69</ele>
        <time>2020-09-06T07:47:14Z</time>
      </trkpt>
      <trkpt lat="49.10759" lon="0.73127">
        <ele>85.21</ele>
        <time>2020-09-06T07:47:16Z</time>
      </trkpt>
      <trkpt lat="49.10762" lon="0.73124">
        <ele>84.73</ele>
        <time>2020-09-06T07:47:17Z</time>
      </trkpt>
      <trkpt lat="49.10764" lon="0.7312">
        <ele>84.73</ele>
        <time>2020-09-06T07:47:18Z</time>
      </trkpt>
      <trkpt lat="49.10767" lon="0.73115">
        <ele>84.73</ele>
        <time>2020-09-06T07:47:19Z</time>
      </trkpt>
      <trkpt lat="49.10813" lon="0.73032">
        <ele>84.25</ele>
        <time>2020-09-06T07:47:37Z</time>
      </trkpt>
      <trkpt lat="49.10825" lon="0.73011">
        <ele>84.25</ele>
        <time>2020-09-06T07:47:43Z</time>
      </trkpt>
      <trkpt lat="49.10832" lon="0.73025">
        <ele>83.29</ele>
        <time>2020-09-06T07:47:47Z</time>
      </trkpt>
      <trkpt lat="49.10869" lon="0.73108">
        <ele>80.89</ele>
        <time>2020-09-06T07:48:03Z</time>
      </trkpt>
      <trkpt lat="49.10873" lon="0.73116">
        <ele>80.89</ele>
        <time>2020-09-06T07:48:06Z</time>
      </trkpt>
      <trkpt lat="49.10876" lon="0.73115">
        <ele>80.89</ele>
        <time>2020-09-06T07:48:07Z</time>
      </trkpt>
      <trkpt lat="49.10878" lon="0.73113">
        <ele>80.89</ele>
        <time>2020-09-06T07:48:08Z</time>
      </trkpt>
      <trkpt lat="49.10881" lon="0.7311">
        <ele>80.89</ele>
        <time>2020-09-06T07:48:09Z</time>
      </trkpt>
      <trkpt lat="49.10884" lon="0.73107">
        <ele>80.89</ele>
        <time>2020-09-06T07:48:10Z</time>
      </trkpt>
      <trkpt lat="49.10909" lon="0.73083">
        <ele>80.89</ele>
        <time>2020-09-06T07:48:20Z</time>
      </trkpt>
      <trkpt lat="49.10911" lon="0.73084">
        <ele>80.89</ele>
        <time>2020-09-06T07:48:21Z</time>
      </trkpt>
      <trkpt lat="49.10906" lon="0.73091">
        <ele>80.89</ele>
        <time>2020-09-06T07:48:26Z</time>
      </trkpt>
      <trkpt lat="49.10903" lon="0.73093">
        <ele>80.89</ele>
        <time>2020-09-06T07:48:27Z</time>
      </trkpt>
      <trkpt lat="49.10874" lon="0.73116">
        <ele>80.89</ele>
        <time>2020-09-06T07:48:36Z</time>
      </trkpt>
      <trkpt lat="49.10866" lon="0.7312">
        <ele>80.89</ele>
        <time>2020-09-06T07:48:38Z</time>
      </trkpt>
      <trkpt lat="49.10861" lon="0.73123">
        <ele>80.89</ele>
        <time>2020-09-06T07:48:39Z</time>
      </trkpt>
      <trkpt lat="49.10849" lon="0.73132">
        <ele>80.89</ele>
        <time>2020-09-06T07:48:42Z</time>
      </trkpt>
      <trkpt lat="49.10845" lon="0.73134">
        <ele>80.89</ele>
        <time>2020-09-06T07:48:43Z</time>
      </trkpt>
      <trkpt lat="49.10841" lon="0.73138">
        <ele>80.89</ele>
        <time>2020-09-06T07:48:44Z</time>
      </trkpt>
      <trkpt lat="49.10826" lon="0.73158">
        <ele>80.89</ele>
        <time>2020-09-06T07:48:48Z</time>
      </trkpt>
      <trkpt lat="49.10821" lon="0.73162">
        <ele>80.89</ele>
        <time>2020-09-06T07:48:49Z</time>
      </trkpt>
      <trkpt lat="49.10817" lon="0.73165">
        <ele>80.89</ele>
        <time>2020-09-06T07:48:50Z</time>
      </trkpt>
      <trkpt lat="49.10812" lon="0.7317">
        <ele>80.89</ele>
        <time>2020-09-06T07:48:51Z</time>
      </trkpt>
      <trkpt lat="49.10809" lon="0.73174">
        <ele>80.89</ele>
        <time>2020-09-06T07:48:52Z</time>
      </trkpt>
      <trkpt lat="49.10805" lon="0.7318">
        <ele>80.89</ele>
        <time>2020-09-06T07:48:53Z</time>
      </trkpt>
      <trkpt lat="49.10798" lon="0.7319">
        <ele>80.89</ele>
        <time>2020-09-06T07:48:55Z</time>
      </trkpt>
      <trkpt lat="49.10766" lon="0.73234">
        <ele>80.89</ele>
        <time>2020-09-06T07:49:04Z</time>
      </trkpt>
      <trkpt lat="49.10763" lon="0.73239">
        <ele>80.89</ele>
        <time>2020-09-06T07:49:05Z</time>
      </trkpt>
      <trkpt lat="49.1076" lon="0.73245">
        <ele>80.89</ele>
        <time>2020-09-06T07:49:06Z</time>
      </trkpt>
      <trkpt lat="49.10756" lon="0.73251">
        <ele>80.89</ele>
        <time>2020-09-06T07:49:07Z</time>
      </trkpt>
      <trkpt lat="49.10753" lon="0.73256">
        <ele>80.89</ele>
        <time>2020-09-06T07:49:08Z</time>
      </trkpt>
      <trkpt lat="49.10749" lon="0.73261">
        <ele>80.89</ele>
        <time>2020-09-06T07:49:09Z</time>
      </trkpt>
      <trkpt lat="49.1074" lon="0.73271">
        <ele>80.89</ele>
        <time>2020-09-06T07:49:11Z</time>
      </trkpt>
      <trkpt lat="49.10705" lon="0.73313">
        <ele>80.41</ele>
        <time>2020-09-06T07:49:22Z</time>
      </trkpt>
      <trkpt lat="49.10704" lon="0.73317">
        <ele>80.41</ele>
        <time>2020-09-06T07:49:23Z</time>
      </trkpt>
      <trkpt lat="49.10705" lon="0.73321">
        <ele>80.41</ele>
        <time>2020-09-06T07:49:24Z</time>
      </trkpt>
      <trkpt lat="49.10707" lon="0.73326">
        <ele>80.41</ele>
        <time>2020-09-06T07:49:25Z</time>
      </trkpt>
      <trkpt lat="49.1071" lon="0.73331">
        <ele>80.41</ele>
        <time>2020-09-06T07:49:26Z</time>
      </trkpt>
      <trkpt lat="49.10727" lon="0.73365">
        <ele>79.93</ele>
        <time>2020-09-06T07:49:32Z</time>
      </trkpt>
      <trkpt lat="49.10732" lon="0.73377">
        <ele>79.93</ele>
        <time>2020-09-06T07:49:34Z</time>
      </trkpt>
      <trkpt lat="49.1076" lon="0.73431">
        <ele>79.93</ele>
        <time>2020-09-06T07:49:46Z</time>
      </trkpt>
      <trkpt lat="49.10765" lon="0.73437">
        <ele>79.93</ele>
        <time>2020-09-06T07:49:50Z</time>
      </trkpt>
      <trkpt lat="49.10767" lon="0.73445">
        <ele>79.93</ele>
        <time>2020-09-06T07:49:53Z</time>
      </trkpt>
      <trkpt lat="49.10801" lon="0.73512">
        <ele>79.45</ele>
        <time>2020-09-06T07:50:11Z</time>
      </trkpt>
      <trkpt lat="49.1083" lon="0.73567">
        <ele>79.45</ele>
        <time>2020-09-06T07:50:25Z</time>
      </trkpt>
      <trkpt lat="49.10852" lon="0.73609">
        <ele>78.97</ele>
        <time>2020-09-06T07:50:37Z</time>
      </trkpt>
      <trkpt lat="49.10881" lon="0.73619">
        <ele>78.97</ele>
        <time>2020-09-06T07:50:50Z</time>
      </trkpt>
      <trkpt lat="49.10883" lon="0.73617">
        <ele>78.97</ele>
        <time>2020-09-06T07:50:51Z</time>
      </trkpt>
      <trkpt lat="49.10878" lon="0.73612">
        <ele>78.97</ele>
        <time>2020-09-06T07:50:58Z</time>
      </trkpt>
      <trkpt lat="49.10853" lon="0.73611">
        <ele>78.97</ele>
        <time>2020-09-06T07:51:11Z</time>
      </trkpt>
      <trkpt lat="49.10832" lon="0.73571">
        <ele>78.97</ele>
        <time>2020-09-06T07:51:25Z</time>
      </trkpt>
      <trkpt lat="49.10799" lon="0.73509">
        <ele>78.97</ele>
        <time>2020-09-06T07:51:41Z</time>
      </trkpt>
      <trkpt lat="49.10774" lon="0.73463">
        <ele>78.97</ele>
        <time>2020-09-06T07:51:53Z</time>
      </trkpt>
      <trkpt lat="49.10762" lon="0.73438">
        <ele>78.97</ele>
        <time>2020-09-06T07:52:05Z</time>
      </trkpt>
      <trkpt lat="49.10761" lon="0.73438">
        <ele>78.97</ele>
        <time>2020-09-06T07:52:13Z</time>
      </trkpt>
      <trkpt lat="49.10755" lon="0.73432">
        <ele>78.97</ele>
        <time>2020-09-06T07:52:19Z</time>
      </trkpt>
      <trkpt lat="49.1074" lon="0.73424">
        <ele>78.97</ele>
        <time>2020-09-06T07:52:32Z</time>
      </trkpt>
      <trkpt lat="49.10739" lon="0.73424">
        <ele>78.97</ele>
        <time>2020-09-06T07:52:33Z</time>
      </trkpt>
      <trkpt lat="49.10738" lon="0.73426">
        <ele>78.97</ele>
        <time>2020-09-06T07:52:34Z</time>
      </trkpt>
      <trkpt lat="49.10736" lon="0.73429">
        <ele>78.97</ele>
        <time>2020-09-06T07:52:35Z</time>
      </trkpt>
      <trkpt lat="49.10735" lon="0.73431">
        <ele>78.97</ele>
        <time>2020-09-06T07:52:36Z</time>
      </trkpt>
      <trkpt lat="49.10733" lon="0.73433">
        <ele>78.97</ele>
        <time>2020-09-06T07:52:37Z</time>
      </trkpt>
      <trkpt lat="49.10731" lon="0.73435">
        <ele>78.97</ele>
        <time>2020-09-06T07:52:38Z</time>
      </trkpt>
      <trkpt lat="49.10692" lon="0.73476">
        <ele>78.97</ele>
        <time>2020-09-06T07:52:54Z</time>
      </trkpt>
      <trkpt lat="49.10646" lon="0.73524">
        <ele>80.41</ele>
        <time>2020-09-06T07:53:11Z</time>
      </trkpt>
      <trkpt lat="49.1061" lon="0.73563">
        <ele>80.41</ele>
        <time>2020-09-06T07:53:24Z</time>
      </trkpt>
      <trkpt lat="49.10565" lon="0.73615">
        <ele>80.41</ele>
        <time>2020-09-06T07:53:38Z</time>
      </trkpt>
      <trkpt lat="49.1053" lon="0.73657">
        <ele>80.41</ele>
        <time>2020-09-06T07:53:49Z</time>
      </trkpt>
      <trkpt lat="49.10481" lon="0.7371">
        <ele>80.89</ele>
        <time>2020-09-06T07:54:05Z</time>
      </trkpt>
      <trkpt lat="49.1046" lon="0.73734">
        <ele>80.89</ele>
        <time>2020-09-06T07:54:15Z</time>
      </trkpt>
      <trkpt lat="49.10458" lon="0.73734">
        <ele>80.89</ele>
        <time>2020-09-06T07:54:16Z</time>
      </trkpt>
      <trkpt lat="49.10456" lon="0.73734">
        <ele>80.89</ele>
        <time>2020-09-06T07:54:17Z</time>
      </trkpt>
      <trkpt lat="49.10454" lon="0.73736">
        <ele>80.89</ele>
        <time>2020-09-06T07:54:18Z</time>
      </trkpt>
      <trkpt lat="49.10453" lon="0.73739">
        <ele>80.89</ele>
        <time>2020-09-06T07:54:19Z</time>
      </trkpt>
      <trkpt lat="49.10452" lon="0.73743">
        <ele>80.89</ele>
        <time>2020-09-06T07:54:20Z</time>
      </trkpt>
      <trkpt lat="49.10452" lon="0.73747">
        <ele>80.89</ele>
        <time>2020-09-06T07:54:21Z</time>
      </trkpt>
      <trkpt lat="49.10452" lon="0.73751">
        <ele>80.89</ele>
        <time>2020-09-06T07:54:22Z</time>
      </trkpt>
      <trkpt lat="49.10452" lon="0.73756">
        <ele>80.89</ele>
        <time>2020-09-06T07:54:23Z</time>
      </trkpt>
      <trkpt lat="49.10453" lon="0.7376">
        <ele>80.89</ele>
        <time>2020-09-06T07:54:24Z</time>
      </trkpt>
      <trkpt lat="49.10454" lon="0.73766">
        <ele>80.89</ele>
        <time>2020-09-06T07:54:25Z</time>
      </trkpt>
      <trkpt lat="49.10455" lon="0.73771">
        <ele>80.89</ele>
        <time>2020-09-06T07:54:26Z</time>
      </trkpt>
      <trkpt lat="49.10457" lon="0.73777">
        <ele>80.89</ele>
        <time>2020-09-06T07:54:27Z</time>
      </trkpt>
      <trkpt lat="49.10461" lon="0.73788">
        <ele>80.89</ele>
        <time>2020-09-06T07:54:29Z</time>
      </trkpt>
      <trkpt lat="49.10467" lon="0.73798">
        <ele>80.89</ele>
        <time>2020-09-06T07:54:31Z</time>
      </trkpt>
      <trkpt lat="49.1047" lon="0.73803">
        <ele>80.89</ele>
        <time>2020-09-06T07:54:32Z</time>
      </trkpt>
      <trkpt lat="49.10474" lon="0.73807">
        <ele>80.89</ele>
        <time>2020-09-06T07:54:33Z</time>
      </trkpt>
      <trkpt lat="49.10477" lon="0.73811">
        <ele>80.89</ele>
        <time>2020-09-06T07:54:34Z</time>
      </trkpt>
      <trkpt lat="49.10481" lon="0.73815">
        <ele>80.89</ele>
        <time>2020-09-06T07:54:35Z</time>
      </trkpt>
      <trkpt lat="49.10496" lon="0.73831">
        <ele>80.89</ele>
        <time>2020-09-06T07:54:39Z</time>
      </trkpt>
      <trkpt lat="49.105" lon="0.73837">
        <ele>80.89</ele>
        <time>2020-09-06T07:54:40Z</time>
      </trkpt>
      <trkpt lat="49.10503" lon="0.73843">
        <ele>80.89</ele>
        <time>2020-09-06T07:54:41Z</time>
      </trkpt>
      <trkpt lat="49.10505" lon="0.7385">
        <ele>80.89</ele>
        <time>2020-09-06T07:54:42Z</time>
      </trkpt>
      <trkpt lat="49.10507" lon="0.73856">
        <ele>80.89</ele>
        <time>2020-09-06T07:54:43Z</time>
      </trkpt>
      <trkpt lat="49.10509" lon="0.73864">
        <ele>80.89</ele>
        <time>2020-09-06T07:54:44Z</time>
      </trkpt>
      <trkpt lat="49.10513" lon="0.73893">
        <ele>80.89</ele>
        <time>2020-09-06T07:54:48Z</time>
      </trkpt>
      <trkpt lat="49.10512" lon="0.739">
        <ele>80.89</ele>
        <time>2020-09-06T07:54:49Z</time>
      </trkpt>
      <trkpt lat="49.10511" lon="0.73907">
        <ele>80.89</ele>
        <time>2020-09-06T07:54:50Z</time>
      </trkpt>
      <trkpt lat="49.1051" lon="0.73913">
        <ele>80.89</ele>
        <time>2020-09-06T07:54:51Z</time>
      </trkpt>
      <trkpt lat="49.10508" lon="0.73918">
        <ele>80.89</ele>
        <time>2020-09-06T07:54:52Z</time>
      </trkpt>
      <trkpt lat="49.10506" lon="0.73923">
        <ele>80.89</ele>
        <time>2020-09-06T07:54:53Z</time>
      </trkpt>
      <trkpt lat="49.10503" lon="0.73928">
        <ele>80.89</ele>
        <time>2020-09-06T07:54:54Z</time>
      </trkpt>
      <trkpt lat="49.105" lon="0.73933">
        <ele>80.89</ele>
        <time>2020-09-06T07:54:55Z</time>
      </trkpt>
      <trkpt lat="49.10493" lon="0.73943">
        <ele>80.89</ele>
        <time>2020-09-06T07:54:57Z</time>
      </trkpt>
      <trkpt lat="49.10431" lon="0.74024">
        <ele>80.89</ele>
        <time>2020-09-06T07:55:15Z</time>
      </trkpt>
      <trkpt lat="49.10404" lon="0.74064">
        <ele>80.89</ele>
        <time>2020-09-06T07:55:23Z</time>
      </trkpt>
      <trkpt lat="49.10401" lon="0.74069">
        <ele>80.89</ele>
        <time>2020-09-06T07:55:24Z</time>
      </trkpt>
      <trkpt lat="49.10387" lon="0.741">
        <ele>80.89</ele>
        <time>2020-09-06T07:55:29Z</time>
      </trkpt>
      <trkpt lat="49.10383" lon="0.74112">
        <ele>80.89</ele>
        <time>2020-09-06T07:55:31Z</time>
      </trkpt>
      <trkpt lat="49.10367" lon="0.74158">
        <ele>80.89</ele>
        <time>2020-09-06T07:55:39Z</time>
      </trkpt>
      <trkpt lat="49.10364" lon="0.74164">
        <ele>80.89</ele>
        <time>2020-09-06T07:55:40Z</time>
      </trkpt>
      <trkpt lat="49.10361" lon="0.7417">
        <ele>80.89</ele>
        <time>2020-09-06T07:55:41Z</time>
      </trkpt>
      <trkpt lat="49.10299" lon="0.74229">
        <ele>80.89</ele>
        <time>2020-09-06T07:55:57Z</time>
      </trkpt>
      <trkpt lat="49.10267" lon="0.7425">
        <ele>80.89</ele>
        <time>2020-09-06T07:56:06Z</time>
      </trkpt>
      <trkpt lat="49.10265" lon="0.74255">
        <ele>80.89</ele>
        <time>2020-09-06T07:56:07Z</time>
      </trkpt>
      <trkpt lat="49.10263" lon="0.74259">
        <ele>80.89</ele>
        <time>2020-09-06T07:56:08Z</time>
      </trkpt>
      <trkpt lat="49.1025" lon="0.74292">
        <ele>80.89</ele>
        <time>2020-09-06T07:56:14Z</time>
      </trkpt>
      <trkpt lat="49.10247" lon="0.74297">
        <ele>80.89</ele>
        <time>2020-09-06T07:56:15Z</time>
      </trkpt>
      <trkpt lat="49.10244" lon="0.74302">
        <ele>80.89</ele>
        <time>2020-09-06T07:56:16Z</time>
      </trkpt>
      <trkpt lat="49.10241" lon="0.74306">
        <ele>80.89</ele>
        <time>2020-09-06T07:56:17Z</time>
      </trkpt>
      <trkpt lat="49.10237" lon="0.7431">
        <ele>80.89</ele>
        <time>2020-09-06T07:56:18Z</time>
      </trkpt>
      <trkpt lat="49.10233" lon="0.74313">
        <ele>80.89</ele>
        <time>2020-09-06T07:56:19Z</time>
      </trkpt>
      <trkpt lat="49.10229" lon="0.74316">
        <ele>80.89</ele>
        <time>2020-09-06T07:56:20Z</time>
      </trkpt>
      <trkpt lat="49.10225" lon="0.74319">
        <ele>80.89</ele>
        <time>2020-09-06T07:56:21Z</time>
      </trkpt>
      <trkpt lat="49.10149" lon="0.74377">
        <ele>80.89</ele>
        <time>2020-09-06T07:56:39Z</time>
      </trkpt>
      <trkpt lat="49.10103" lon="0.74414">
        <ele>81.37</ele>
        <time>2020-09-06T07:56:50Z</time>
      </trkpt>
      <trkpt lat="49.10099" lon="0.74415">
        <ele>81.37</ele>
        <time>2020-09-06T07:56:51Z</time>
      </trkpt>
      <trkpt lat="49.10086" lon="0.74419">
        <ele>81.37</ele>
        <time>2020-09-06T07:56:54Z</time>
      </trkpt>
      <trkpt lat="49.10083" lon="0.74421">
        <ele>81.37</ele>
        <time>2020-09-06T07:56:55Z</time>
      </trkpt>
      <trkpt lat="49.10078" lon="0.74423">
        <ele>81.37</ele>
        <time>2020-09-06T07:56:56Z</time>
      </trkpt>
      <trkpt lat="49.10025" lon="0.74458">
        <ele>81.37</ele>
        <time>2020-09-06T07:57:10Z</time>
      </trkpt>
      <trkpt lat="49.09991" lon="0.74461">
        <ele>81.37</ele>
        <time>2020-09-06T07:57:20Z</time>
      </trkpt>
      <trkpt lat="49.09989" lon="0.74463">
        <ele>81.37</ele>
        <time>2020-09-06T07:57:21Z</time>
      </trkpt>
      <trkpt lat="49.09987" lon="0.74465">
        <ele>81.37</ele>
        <time>2020-09-06T07:57:22Z</time>
      </trkpt>
      <trkpt lat="49.09984" lon="0.74466">
        <ele>81.37</ele>
        <time>2020-09-06T07:57:23Z</time>
      </trkpt>
      <trkpt lat="49.09982" lon="0.74465">
        <ele>81.37</ele>
        <time>2020-09-06T07:57:24Z</time>
      </trkpt>
      <trkpt lat="49.0998" lon="0.74465">
        <ele>81.37</ele>
        <time>2020-09-06T07:57:25Z</time>
      </trkpt>
      <trkpt lat="49.09977" lon="0.74465">
        <ele>81.37</ele>
        <time>2020-09-06T07:57:26Z</time>
      </trkpt>
      <trkpt lat="49.09976" lon="0.74466">
        <ele>81.37</ele>
        <time>2020-09-06T07:57:27Z</time>
      </trkpt>
      <trkpt lat="49.09974" lon="0.74468">
        <ele>81.37</ele>
        <time>2020-09-06T07:57:28Z</time>
      </trkpt>
      <trkpt lat="49.09948" lon="0.745">
        <ele>81.37</ele>
        <time>2020-09-06T07:57:40Z</time>
      </trkpt>
      <trkpt lat="49.09918" lon="0.74539">
        <ele>81.85</ele>
        <time>2020-09-06T07:57:51Z</time>
      </trkpt>
      <trkpt lat="49.09898" lon="0.74576">
        <ele>81.85</ele>
        <time>2020-09-06T07:58:02Z</time>
      </trkpt>
      <trkpt lat="49.09885" lon="0.74601">
        <ele>81.85</ele>
        <time>2020-09-06T07:58:12Z</time>
      </trkpt>
      <trkpt lat="49.09883" lon="0.74602">
        <ele>81.85</ele>
        <time>2020-09-06T07:58:13Z</time>
      </trkpt>
      <trkpt lat="49.09881" lon="0.74603">
        <ele>81.85</ele>
        <time>2020-09-06T07:58:14Z</time>
      </trkpt>
      <trkpt lat="49.09879" lon="0.74603">
        <ele>81.85</ele>
        <time>2020-09-06T07:58:15Z</time>
      </trkpt>
      <trkpt lat="49.09877" lon="0.74602">
        <ele>81.85</ele>
        <time>2020-09-06T07:58:16Z</time>
      </trkpt>
      <trkpt lat="49.09875" lon="0.74602">
        <ele>81.85</ele>
        <time>2020-09-06T07:58:17Z</time>
      </trkpt>
      <trkpt lat="49.09872" lon="0.746">
        <ele>81.85</ele>
        <time>2020-09-06T07:58:18Z</time>
      </trkpt>
      <trkpt lat="49.09846" lon="0.74582">
        <ele>81.85</ele>
        <time>2020-09-06T07:58:29Z</time>
      </trkpt>
      <trkpt lat="49.09813" lon="0.74615">
        <ele>81.85</ele>
        <time>2020-09-06T07:58:41Z</time>
      </trkpt>
      <trkpt lat="49.09777" lon="0.74664">
        <ele>82.81</ele>
        <time>2020-09-06T07:58:54Z</time>
      </trkpt>
      <trkpt lat="49.0975" lon="0.74697">
        <ele>82.33</ele>
        <time>2020-09-06T07:59:03Z</time>
      </trkpt>
      <trkpt lat="49.09706" lon="0.74753">
        <ele>82.81</ele>
        <time>2020-09-06T07:59:16Z</time>
      </trkpt>
      <trkpt lat="49.09704" lon="0.74759">
        <ele>82.81</ele>
        <time>2020-09-06T07:59:17Z</time>
      </trkpt>
      <trkpt lat="49.09689" lon="0.74801">
        <ele>82.81</ele>
        <time>2020-09-06T07:59:24Z</time>
      </trkpt>
      <trkpt lat="49.09686" lon="0.74806">
        <ele>82.81</ele>
        <time>2020-09-06T07:59:25Z</time>
      </trkpt>
      <trkpt lat="49.09651" lon="0.74854">
        <ele>82.81</ele>
        <time>2020-09-06T07:59:38Z</time>
      </trkpt>
      <trkpt lat="49.09607" lon="0.74908">
        <ele>82.81</ele>
        <time>2020-09-06T07:59:53Z</time>
      </trkpt>
      <trkpt lat="49.09562" lon="0.74956">
        <ele>83.29</ele>
        <time>2020-09-06T08:00:08Z</time>
      </trkpt>
      <trkpt lat="49.09533" lon="0.74995">
        <ele>83.29</ele>
        <time>2020-09-06T08:00:19Z</time>
      </trkpt>
      <trkpt lat="49.09506" lon="0.75051">
        <ele>83.29</ele>
        <time>2020-09-06T08:00:32Z</time>
      </trkpt>
      <trkpt lat="49.09483" lon="0.75114">
        <ele>83.29</ele>
        <time>2020-09-06T08:00:46Z</time>
      </trkpt>
      <trkpt lat="49.09456" lon="0.75172">
        <ele>83.29</ele>
        <time>2020-09-06T08:01:02Z</time>
      </trkpt>
      <trkpt lat="49.09453" lon="0.75172">
        <ele>83.29</ele>
        <time>2020-09-06T08:01:03Z</time>
      </trkpt>
      <trkpt lat="49.0945" lon="0.75172">
        <ele>83.29</ele>
        <time>2020-09-06T08:01:04Z</time>
      </trkpt>
      <trkpt lat="49.09447" lon="0.75171">
        <ele>83.29</ele>
        <time>2020-09-06T08:01:05Z</time>
      </trkpt>
      <trkpt lat="49.09398" lon="0.7514">
        <ele>83.29</ele>
        <time>2020-09-06T08:01:17Z</time>
      </trkpt>
      <trkpt lat="49.09321" lon="0.75106">
        <ele>83.29</ele>
        <time>2020-09-06T08:01:33Z</time>
      </trkpt>
      <trkpt lat="49.09282" lon="0.75097">
        <ele>83.29</ele>
        <time>2020-09-06T08:01:42Z</time>
      </trkpt>
      <trkpt lat="49.0928" lon="0.75101">
        <ele>83.29</ele>
        <time>2020-09-06T08:01:43Z</time>
      </trkpt>
      <trkpt lat="49.09279" lon="0.75106">
        <ele>83.29</ele>
        <time>2020-09-06T08:01:44Z</time>
      </trkpt>
      <trkpt lat="49.09266" lon="0.75153">
        <ele>83.29</ele>
        <time>2020-09-06T08:01:56Z</time>
      </trkpt>
      <trkpt lat="49.09264" lon="0.75161">
        <ele>83.29</ele>
        <time>2020-09-06T08:01:58Z</time>
      </trkpt>
      <trkpt lat="49.09259" lon="0.75212">
        <ele>83.29</ele>
        <time>2020-09-06T08:02:10Z</time>
      </trkpt>
      <trkpt lat="49.09248" lon="0.75285">
        <ele>83.29</ele>
        <time>2020-09-06T08:02:24Z</time>
      </trkpt>
      <trkpt lat="49.09232" lon="0.75352">
        <ele>83.29</ele>
        <time>2020-09-06T08:02:37Z</time>
      </trkpt>
      <trkpt lat="49.09209" lon="0.75397">
        <ele>83.29</ele>
        <time>2020-09-06T08:02:50Z</time>
      </trkpt>
      <trkpt lat="49.09182" lon="0.75452">
        <ele>83.29</ele>
        <time>2020-09-06T08:03:05Z</time>
      </trkpt>
      <trkpt lat="49.09173" lon="0.75503">
        <ele>83.29</ele>
        <time>2020-09-06T08:03:17Z</time>
      </trkpt>
      <trkpt lat="49.09162" lon="0.75581">
        <ele>83.29</ele>
        <time>2020-09-06T08:03:34Z</time>
      </trkpt>
      <trkpt lat="49.09142" lon="0.75638">
        <ele>83.77</ele>
        <time>2020-09-06T08:03:49Z</time>
      </trkpt>
      <trkpt lat="49.09111" lon="0.75676">
        <ele>83.77</ele>
        <time>2020-09-06T08:04:02Z</time>
      </trkpt>
      <trkpt lat="49.0906" lon="0.75752">
        <ele>84.25</ele>
        <time>2020-09-06T08:04:18Z</time>
      </trkpt>
      <trkpt lat="49.0901" lon="0.75851">
        <ele>84.25</ele>
        <time>2020-09-06T08:04:34Z</time>
      </trkpt>
      <trkpt lat="49.0897" lon="0.75949">
        <ele>84.73</ele>
        <time>2020-09-06T08:04:49Z</time>
      </trkpt>
      <trkpt lat="49.08911" lon="0.76067">
        <ele>84.73</ele>
        <time>2020-09-06T08:05:08Z</time>
      </trkpt>
      <trkpt lat="49.08851" lon="0.76209">
        <ele>84.73</ele>
        <time>2020-09-06T08:05:28Z</time>
      </trkpt>
      <trkpt lat="49.08792" lon="0.76286">
        <ele>84.73</ele>
        <time>2020-09-06T08:05:42Z</time>
      </trkpt>
      <trkpt lat="49.08747" lon="0.76319">
        <ele>86.18</ele>
        <time>2020-09-06T08:05:54Z</time>
      </trkpt>
      <trkpt lat="49.08743" lon="0.76317">
        <ele>86.18</ele>
        <time>2020-09-06T08:05:55Z</time>
      </trkpt>
      <trkpt lat="49.08739" lon="0.76313">
        <ele>86.18</ele>
        <time>2020-09-06T08:05:56Z</time>
      </trkpt>
      <trkpt lat="49.08729" lon="0.76302">
        <ele>86.18</ele>
        <time>2020-09-06T08:05:59Z</time>
      </trkpt>
      <trkpt lat="49.08669" lon="0.76207">
        <ele>86.18</ele>
        <time>2020-09-06T08:06:15Z</time>
      </trkpt>
      <trkpt lat="49.08589" lon="0.76085">
        <ele>86.18</ele>
        <time>2020-09-06T08:06:33Z</time>
      </trkpt>
      <trkpt lat="49.08544" lon="0.76012">
        <ele>87.62</ele>
        <time>2020-09-06T08:06:47Z</time>
      </trkpt>
      <trkpt lat="49.08518" lon="0.75932">
        <ele>89.06</ele>
        <time>2020-09-06T08:07:03Z</time>
      </trkpt>
      <trkpt lat="49.08516" lon="0.75926">
        <ele>89.06</ele>
        <time>2020-09-06T08:07:04Z</time>
      </trkpt>
      <trkpt lat="49.08514" lon="0.75921">
        <ele>89.54</ele>
        <time>2020-09-06T08:07:05Z</time>
      </trkpt>
      <trkpt lat="49.08468" lon="0.75839">
        <ele>90.02</ele>
        <time>2020-09-06T08:07:24Z</time>
      </trkpt>
      <trkpt lat="49.08438" lon="0.75808">
        <ele>90.02</ele>
        <time>2020-09-06T08:07:37Z</time>
      </trkpt>
      <trkpt lat="49.08408" lon="0.75841">
        <ele>90.5</ele>
        <time>2020-09-06T08:07:50Z</time>
      </trkpt>
      <trkpt lat="49.08402" lon="0.75852">
        <ele>90.5</ele>
        <time>2020-09-06T08:07:52Z</time>
      </trkpt>
      <trkpt lat="49.08333" lon="0.75955">
        <ele>91.46</ele>
        <time>2020-09-06T08:08:10Z</time>
      </trkpt>
      <trkpt lat="49.08255" lon="0.76073">
        <ele>92.42</ele>
        <time>2020-09-06T08:08:30Z</time>
      </trkpt>
      <trkpt lat="49.08183" lon="0.76182">
        <ele>92.9</ele>
        <time>2020-09-06T08:08:49Z</time>
      </trkpt>
      <trkpt lat="49.08179" lon="0.76186">
        <ele>92.9</ele>
        <time>2020-09-06T08:08:50Z</time>
      </trkpt>
      <trkpt lat="49.08175" lon="0.76188">
        <ele>92.9</ele>
        <time>2020-09-06T08:08:51Z</time>
      </trkpt>
      <trkpt lat="49.0817" lon="0.76188">
        <ele>92.9</ele>
        <time>2020-09-06T08:08:52Z</time>
      </trkpt>
      <trkpt lat="49.08165" lon="0.76186">
        <ele>92.9</ele>
        <time>2020-09-06T08:08:53Z</time>
      </trkpt>
      <trkpt lat="49.08162" lon="0.76184">
        <ele>92.9</ele>
        <time>2020-09-06T08:08:54Z</time>
      </trkpt>
      <trkpt lat="49.08158" lon="0.76182">
        <ele>92.9</ele>
        <time>2020-09-06T08:08:55Z</time>
      </trkpt>
      <trkpt lat="49.08154" lon="0.76181">
        <ele>92.9</ele>
        <time>2020-09-06T08:08:56Z</time>
      </trkpt>
      <trkpt lat="49.08151" lon="0.76182">
        <ele>92.9</ele>
        <time>2020-09-06T08:08:57Z</time>
      </trkpt>
      <trkpt lat="49.08147" lon="0.76184">
        <ele>93.39</ele>
        <time>2020-09-06T08:08:58Z</time>
      </trkpt>
      <trkpt lat="49.08143" lon="0.76186">
        <ele>93.39</ele>
        <time>2020-09-06T08:08:59Z</time>
      </trkpt>
      <trkpt lat="49.0814" lon="0.7619">
        <ele>93.39</ele>
        <time>2020-09-06T08:09:00Z</time>
      </trkpt>
      <trkpt lat="49.08137" lon="0.76194">
        <ele>93.87</ele>
        <time>2020-09-06T08:09:01Z</time>
      </trkpt>
      <trkpt lat="49.08135" lon="0.76199">
        <ele>93.87</ele>
        <time>2020-09-06T08:09:02Z</time>
      </trkpt>
      <trkpt lat="49.0811" lon="0.76245">
        <ele>96.75</ele>
        <time>2020-09-06T08:09:12Z</time>
      </trkpt>
      <trkpt lat="49.08084" lon="0.76293">
        <ele>99.63</ele>
        <time>2020-09-06T08:09:22Z</time>
      </trkpt>
      <trkpt lat="49.0808" lon="0.76296">
        <ele>99.63</ele>
        <time>2020-09-06T08:09:23Z</time>
      </trkpt>
      <trkpt lat="49.08076" lon="0.76298">
        <ele>99.63</ele>
        <time>2020-09-06T08:09:24Z</time>
      </trkpt>
      <trkpt lat="49.08073" lon="0.76298">
        <ele>100.11</ele>
        <time>2020-09-06T08:09:25Z</time>
      </trkpt>
      <trkpt lat="49.08069" lon="0.76298">
        <ele>100.11</ele>
        <time>2020-09-06T08:09:26Z</time>
      </trkpt>
      <trkpt lat="49.08065" lon="0.76297">
        <ele>100.11</ele>
        <time>2020-09-06T08:09:27Z</time>
      </trkpt>
      <trkpt lat="49.08061" lon="0.76295">
        <ele>100.6</ele>
        <time>2020-09-06T08:09:28Z</time>
      </trkpt>
      <trkpt lat="49.08057" lon="0.76294">
        <ele>100.6</ele>
        <time>2020-09-06T08:09:29Z</time>
      </trkpt>
      <trkpt lat="49.0802" lon="0.76264">
        <ele>100.6</ele>
        <time>2020-09-06T08:09:43Z</time>
      </trkpt>
      <trkpt lat="49.0801" lon="0.76223">
        <ele>100.6</ele>
        <time>2020-09-06T08:09:50Z</time>
      </trkpt>
      <trkpt lat="49.08007" lon="0.76217">
        <ele>100.6</ele>
        <time>2020-09-06T08:09:51Z</time>
      </trkpt>
      <trkpt lat="49.08003" lon="0.76212">
        <ele>99.15</ele>
        <time>2020-09-06T08:09:52Z</time>
      </trkpt>
      <trkpt lat="49.07999" lon="0.76208">
        <ele>99.15</ele>
        <time>2020-09-06T08:09:53Z</time>
      </trkpt>
      <trkpt lat="49.07994" lon="0.76205">
        <ele>98.67</ele>
        <time>2020-09-06T08:09:54Z</time>
      </trkpt>
      <trkpt lat="49.07984" lon="0.76195">
        <ele>98.19</ele>
        <time>2020-09-06T08:10:01Z</time>
      </trkpt>
      <trkpt lat="49.07984" lon="0.76195">
        <ele>99.63</ele>
        <time>2020-09-06T08:10:38Z</time>
      </trkpt>
    </trkseg>
  </trk>
</gpx>